Aviation Digital Data Service (ADDS)

Output produced by METARs form (0444 UTC 26 April 2019)
found at http://www.aviationweather.gov/metar/data/
 
Forecast for: UTDD (DUSHANBE , TJ)
Text: TAF UTDD 260300Z 2604/2616 VRB02MPS 5000 BR SCT011 BKN030CB
Forecast period: 0400 to 1600 UTC 26 April 2019
Forecast type: FROM: standard forecast or significant change
Winds: variable direction winds at 5 MPH (4 knots; 2.1 m/s)
Visibility: 3 miles (5 km)
Ceiling: 3000 feet AGL
Clouds: scattered clouds at 1100 feet AGL
broken clouds at 3000 feet AGL
Weather: BR  (mist)
Text: TEMPO 2604/2616 3100 -SHRA BR
Forecast period: 0400 to 1600 UTC 26 April 2019
Forecast type: TEMPORARY: The following changes expected for less than half the time period
Visibility: 1.93 miles (3.11 km)
Ceiling: unknown
Clouds: missing
Weather: -SHRA BR  (light rain showers, mist)
Text: PROB40
Forecast period: 0400 to 1600 UTC 26 April 2019
Forecast type: TEMPORARY: The following changes expected for less than half the time period
Visibility: 2.17 miles (3.49 km)
Ceiling: unknown
Clouds: missing
Weather: -TSRA BR  (light rain associated with thunderstorm(s), mist)